createdAt,value
2022-11-03T04:11:18.793Z,7.85
2022-11-03T04:14:39.892Z,7.83
2022-11-03T04:18:05.061Z,7.88
2022-11-03T04:21:30.616Z,7.94
2022-11-03T04:24:32.689Z,7.88
2022-11-03T04:27:37.073Z,7.90
2022-11-03T04:30:39.894Z,8.00
2022-11-03T04:33:43.233Z,7.99
2022-11-03T04:36:45.277Z,7.96
2022-11-03T04:39:47.856Z,7.95
2022-11-03T04:42:50.192Z,7.89
2022-11-03T04:45:52.946Z,7.87
2022-11-03T04:49:00.553Z,7.80
2022-11-03T04:52:02.910Z,7.80
2022-11-03T04:55:10.318Z,7.80
2022-11-03T04:58:32.452Z,7.78
2022-11-03T05:01:34.963Z,7.82
2022-11-03T05:04:37.619Z,7.84
2022-11-03T05:07:39.660Z,7.84
2022-11-03T05:10:41.976Z,7.85
2022-11-03T05:13:44.376Z,7.85
2022-11-03T05:16:50.455Z,7.84
2022-11-03T05:19:57.851Z,7.81
2022-11-03T05:23:00.908Z,7.62
2022-11-03T05:26:03.436Z,7.54
2022-11-03T05:29:19.579Z,7.56
2022-11-03T05:32:25.827Z,7.69
2022-11-03T05:35:28.211Z,7.68
2022-11-03T05:38:32.609Z,7.80
2022-11-03T05:41:35.284Z,7.85
2022-11-03T05:44:40.061Z,7.92
2022-11-03T05:47:42.707Z,7.87
2022-11-03T05:50:45.029Z,7.97
2022-11-03T05:53:51.088Z,8.03
2022-11-03T05:56:53.307Z,8.07
2022-11-03T05:59:56.103Z,8.17
2022-11-03T06:02:59.206Z,8.28
2022-11-03T06:06:02.403Z,8.26
2022-11-03T06:09:16.409Z,8.32
2022-11-03T06:12:20.787Z,8.48
2022-11-03T06:15:43.836Z,8.68
2022-11-03T06:18:46.207Z,8.77
2022-11-03T06:21:50.161Z,8.94
2022-11-03T06:24:59.098Z,9.10
2022-11-03T06:28:14.751Z,9.28
2022-11-03T06:31:20.314Z,9.41
2022-11-03T06:34:37.955Z,9.58
2022-11-03T06:37:42.128Z,9.73
2022-11-03T06:40:45.457Z,9.81
2022-11-03T06:43:47.753Z,9.92
2022-11-03T06:46:50.840Z,10.15
2022-11-03T06:49:56.546Z,10.34
2022-11-03T06:53:01.600Z,10.54
2022-11-03T06:56:12.529Z,10.77
2022-11-03T06:59:16.237Z,10.99
2022-11-03T07:03:00.535Z,11.15
2022-11-03T07:06:27.172Z,11.46
2022-11-03T07:09:30.802Z,11.66
2022-11-03T07:12:32.920Z,11.57
2022-11-03T07:15:38.189Z,11.86
2022-11-03T07:18:43.882Z,12.22
2022-11-03T07:21:52.840Z,12.44
2022-11-03T07:24:59.557Z,12.44
2022-11-03T07:28:02.683Z,12.41
2022-11-03T07:31:16.821Z,12.59
2022-11-03T07:34:23.475Z,12.74
2022-11-03T07:37:26.127Z,12.68
2022-11-03T07:40:31.761Z,12.62
2022-11-03T07:43:35.933Z,12.84
2022-11-03T07:46:38.288Z,12.82
2022-11-03T07:49:41.474Z,12.66
2022-11-03T07:52:43.929Z,12.46
2022-11-03T07:55:47.110Z,12.40
2022-11-03T07:59:04.897Z,12.45
2022-11-03T08:02:37.678Z,12.57
2022-11-03T08:05:40.118Z,12.39
2022-11-03T08:08:42.162Z,12.35
2022-11-03T08:11:50.101Z,12.22
2022-11-03T08:14:52.193Z,11.92
2022-11-03T08:17:56.207Z,11.95
2022-11-03T08:20:58.453Z,11.72
2022-11-03T08:24:01.010Z,12.04
2022-11-03T08:27:03.525Z,12.01
2022-11-03T08:30:06.437Z,12.03
2022-11-03T08:33:09.001Z,12.07
2022-11-03T08:36:11.788Z,12.09
2022-11-03T08:39:13.844Z,12.09
2022-11-03T08:42:16.159Z,12.07
2022-11-03T08:45:18.260Z,12.16
2022-11-03T08:48:22.475Z,12.17
2022-11-03T08:51:24.714Z,12.07
2022-11-03T08:54:27.080Z,12.20
2022-11-03T08:57:29.728Z,12.23
2022-11-03T09:00:34.955Z,12.27
2022-11-03T09:03:41.228Z,12.37
2022-11-03T09:06:43.727Z,12.61
2022-11-03T09:13:09.075Z,12.42
2022-11-03T09:16:11.461Z,12.31
2022-11-03T09:19:14.033Z,12.47
2022-11-03T09:22:16.250Z,12.49
2022-11-03T09:25:19.221Z,12.46
2022-11-03T09:28:21.372Z,12.48
2022-11-03T09:31:28.206Z,12.34
2022-11-03T09:34:30.341Z,12.48
2022-11-03T09:37:32.561Z,12.56
2022-11-03T09:40:36.048Z,12.58
2022-11-03T09:43:38.560Z,12.74
2022-11-03T09:46:41.071Z,12.63
2022-11-03T09:49:43.386Z,12.47
2022-11-03T09:52:51.339Z,12.56
2022-11-03T09:55:55.237Z,12.68
2022-11-03T09:58:57.425Z,12.67
2022-11-03T10:01:59.966Z,12.80
2022-11-03T10:05:08.297Z,12.83
2022-11-03T10:08:23.554Z,12.70
2022-11-03T10:11:25.918Z,12.72
2022-11-03T10:14:28.809Z,12.53
2022-11-03T10:17:31.164Z,12.66
2022-11-03T10:20:33.222Z,12.52
2022-11-03T10:23:35.657Z,12.49
2022-11-03T10:26:52.391Z,12.41
2022-11-03T10:30:12.341Z,12.44
2022-11-03T10:33:41.626Z,12.20
2022-11-03T10:36:48.117Z,12.34
2022-11-03T10:39:54.881Z,12.25
2022-11-03T10:43:00.243Z,12.22
2022-11-03T10:46:44.691Z,12.32
2022-11-03T10:49:44.950Z,12.28
2022-11-03T10:52:47.179Z,12.28
2022-11-03T10:55:49.666Z,12.19
2022-11-03T10:58:52.526Z,12.23
2022-11-03T11:01:55.203Z,12.26
2022-11-03T11:05:00.882Z,12.47
2022-11-03T11:08:03.335Z,12.36
2022-11-03T11:11:07.003Z,12.33
2022-11-03T11:14:25.398Z,12.26
2022-11-03T11:17:45.966Z,12.06
2022-11-03T11:20:48.928Z,12.16
2022-11-03T11:23:52.835Z,12.11
2022-11-03T11:26:55.431Z,12.03
2022-11-03T11:29:59.026Z,12.11
2022-11-03T11:33:17.874Z,12.12
2022-11-03T11:36:22.828Z,12.05
2022-11-03T11:39:27.850Z,11.89
2022-11-03T11:42:31.536Z,11.97
2022-11-03T11:46:13.548Z,12.02
2022-11-03T11:49:17.419Z,12.12
2022-11-03T11:52:19.772Z,12.29
2022-11-03T11:55:24.769Z,12.33
2022-11-03T11:58:44.410Z,12.16
2022-11-03T12:01:51.098Z,12.16
2022-11-03T12:05:03.610Z,12.33
2022-11-03T12:08:25.164Z,12.39
2022-11-03T12:11:46.093Z,12.30
2022-11-03T12:14:49.149Z,12.41
2022-11-03T12:17:51.476Z,12.36
2022-11-03T12:20:53.584Z,12.61
2022-11-03T12:23:56.008Z,12.78
2022-11-03T12:27:01.292Z,12.76
2022-11-03T12:30:16.435Z,12.74
2022-11-03T12:33:18.569Z,12.50
2022-11-03T12:36:20.897Z,12.65
2022-11-03T12:39:22.951Z,12.65
2022-11-03T12:42:25.580Z,12.62
2022-11-03T12:45:27.732Z,12.67
2022-11-03T12:48:30.061Z,12.52
2022-11-03T12:51:32.139Z,12.46
2022-11-03T12:54:34.494Z,12.55
2022-11-03T12:57:36.582Z,12.57
2022-11-03T13:00:38.932Z,12.45
2022-11-03T13:03:40.986Z,12.34
2022-11-03T13:06:43.412Z,12.24
2022-11-03T13:09:45.486Z,12.20
2022-11-03T13:12:47.841Z,12.22
2022-11-03T13:15:49.971Z,12.06
2022-11-03T13:18:52.578Z,12.05
2022-11-03T13:21:54.714Z,11.93
2022-11-03T13:24:57.114Z,12.07
2022-11-03T13:27:59.640Z,12.06
2022-11-03T13:31:02.336Z,12.05
2022-11-03T13:34:04.385Z,12.08
2022-11-03T13:37:06.714Z,12.06
2022-11-03T13:40:19.197Z,12.04
2022-11-03T13:43:31.875Z,11.95
2022-11-03T13:46:33.973Z,11.81
2022-11-03T13:50:07.889Z,11.83
2022-11-03T13:56:22.120Z,11.75
2022-11-03T14:05:54.923Z,11.64
2022-11-03T14:08:57.092Z,11.54
2022-11-03T14:12:18.427Z,11.52
2022-11-03T14:15:20.484Z,11.55
2022-11-03T14:18:22.815Z,11.51
2022-11-03T14:21:24.867Z,11.44
2022-11-03T14:24:27.748Z,11.36
2022-11-03T14:27:29.934Z,11.34
2022-11-03T14:30:32.337Z,11.40
2022-11-03T14:33:34.403Z,11.41
2022-11-03T14:36:36.817Z,11.43
2022-11-03T14:39:38.951Z,11.34
2022-11-03T14:42:41.246Z,11.34
2022-11-03T14:45:43.337Z,11.22
2022-11-03T14:48:46.169Z,11.31
2022-11-03T14:51:48.226Z,11.22
2022-11-03T14:54:52.086Z,11.39
2022-11-03T14:57:54.205Z,11.33
2022-11-03T15:00:56.592Z,11.16
2022-11-03T15:03:58.762Z,11.19
2022-11-03T15:07:01.235Z,11.27
2022-11-03T15:10:03.484Z,11.00
2022-11-03T15:13:06.136Z,10.94
2022-11-03T15:16:08.486Z,10.97
2022-11-03T15:19:10.825Z,10.68
2022-11-03T15:22:12.999Z,10.56
2022-11-03T15:25:18.140Z,10.57
2022-11-03T15:28:23.905Z,10.53
2022-11-03T15:31:26.219Z,10.29
2022-11-03T15:34:28.296Z,10.09
2022-11-03T15:37:30.637Z,10.12
2022-11-03T15:40:32.786Z,10.11
2022-11-03T15:43:35.116Z,9.95
2022-11-03T15:46:37.293Z,9.80
2022-11-03T15:49:39.624Z,9.81
2022-11-03T15:52:42.100Z,9.77
2022-11-03T15:55:44.464Z,9.85
2022-11-03T15:58:46.506Z,9.77
2022-11-03T16:01:48.879Z,9.61
2022-11-03T16:04:51.329Z,9.46
2022-11-03T16:07:53.764Z,9.49
2022-11-03T16:10:58.115Z,9.52
2022-11-03T16:14:01.267Z,9.44
2022-11-03T16:17:05.174Z,9.42
